首页
METAR-TAF:

METAR-TAF

机场 :

Tinker Air Force Base

奧克拉荷馬 / Tinker, 奧克拉荷馬州, 美国

纬度: 35-25N, 经度: 097-23W, 海拔: 394米

当前天气观测

该预报发布于56分钟前的18:55 UTC
风速8节,风向南转西南
温度 30°C
湿度 52%
气压 1019 hPa
能見度: 16.1公里
少量云层高于20000英尺

METAR: KTIK 191855Z 21008KT 10SM FEW200 30/19 A3010 RMK AO2A SLP179 T02980188

时间: 14:51 (19:51 UTC)

预报

该预报发布于26小时和51分钟前的17:00 UTC
预报有效从18日的 17点(UTC)到 19日的 23点(UTC)
风速25节,风向,有时为35节阵风
能见度10公里或以上
多云层高于3000英尺
成为
从 19日的 01点(UTC)到 19日的 02点(UTC)
风速12节,风向南转南东,有时为17节阵风
能见度10公里或以上
散云层高于4000英尺
多云层高于12000英尺
成为
从 19日的 06点(UTC)到 19日的 07点(UTC)
风速9节,风向南转南东
能见度10公里或以上
散云层高于4500英尺
散云层高于12000英尺
成为
从 19日的 14点(UTC)到 19日的 15点(UTC)
风速12节,风向,有时为18节阵风
能见度10公里或以上
多云层高于1300英尺
阴天层高于2100英尺

TAF: KTIK 181700Z 1817/1923 18025G35KT 9999 BKN030 510003 QNH2977INS BECMG 1901/1902 16012G17KT 9999 SCT040 BKN120 QNH2981INS BECMG 1906/1907 15009KT 9999 SCT045 SCT120 QNH2991INS BECMG 1914/1915 18012G18KT 9999 BKN013 OVC021 QNH3004INS TX32/1821Z TN23/1912Z

超过4000个机场的气象观测和天气预报(METAR&TAF报告)。

可查询的气象台以黄色和红色小点在地图上表示。

将鼠标移到小点上方,可查看气象台名称。

然后点击查看天气观测和预报。

如需切换地图:点击带黑十字的绿色按钮放大地图;点击带横线的绿色按钮缩小地图;或者点击绿色箭头查看邻近地区的地图。


METAR-TAF: